Fort Story, Virginia
Current Conditions -  °F | °C
As of 2:56 AM on Monday 24 Nov 2014 (Local Time) from KNTU Reporting Station
Overcast Overcast  
Wind Chill: 68°   Ceiling: 800
Heat Index: 68°   Visibility: 10mi
Dew Point: 64°   Wind: 13mph
Humidity: 87%   Direction: 190°S
Pressure: 29.79"   Gusts: 29mph
Location:  36.922°N, 76.0108°W
Report Text: KNTU 240756Z 19011G25KT 10SM BKN008 OVC013 20/18 A2979 RMK AO2 PK WND 18027/0745 RAE26 SLP092 P0005 T02000178 $
Loading
Personal Weather Stations






























Interactive Weather Map New forecast layout! Learn more

10-Day Weather Forecast

Advertisements
Track Severe Weather on mobile